createdAt,value
2018-01-14T00:00:08.374Z,6.33
2018-01-14T00:02:35.882Z,6.40
2018-01-14T00:05:03.400Z,7.73
2018-01-14T00:07:31.661Z,6.50
2018-01-14T00:09:59.177Z,5.60
2018-01-14T00:12:26.664Z,5.73
2018-01-14T00:14:54.949Z,6.30
2018-01-14T00:17:22.460Z,7.00
2018-01-14T00:19:49.949Z,5.70
2018-01-14T00:22:17.456Z,6.67
2018-01-14T00:24:44.948Z,5.70
2018-01-14T00:27:12.476Z,5.27
2018-01-14T00:29:39.965Z,5.93
2018-01-14T00:32:07.477Z,7.77
2018-01-14T00:34:34.966Z,6.40
2018-01-14T00:37:02.569Z,6.23
2018-01-14T00:39:30.857Z,6.80
2018-01-14T00:41:59.146Z,6.60
2018-01-14T00:44:26.645Z,6.07
2018-01-14T00:46:54.133Z,6.77
2018-01-14T00:49:22.422Z,5.10
2018-01-14T00:51:50.684Z,5.80
2018-01-14T00:54:18.965Z,6.37
2018-01-14T00:56:48.157Z,5.77
2018-01-14T00:59:16.570Z,6.27
2018-01-14T01:01:44.088Z,5.57
2018-01-14T01:04:13.549Z,5.43
2018-01-14T01:06:41.051Z,5.00
2018-01-14T01:09:09.329Z,5.80
2018-01-14T01:11:37.580Z,5.50
2018-01-14T01:14:05.076Z,5.40
2018-01-14T01:16:32.605Z,5.00
2018-01-14T01:19:00.098Z,4.60
2018-01-14T01:21:27.616Z,4.90
2018-01-14T01:23:55.110Z,5.37
2018-01-14T01:26:22.608Z,5.30
2018-01-14T01:28:50.145Z,6.00
2018-01-14T01:31:17.661Z,5.73
2018-01-14T01:33:45.924Z,6.13
2018-01-14T01:36:13.444Z,5.00
2018-01-14T01:38:40.955Z,5.23
2018-01-14T01:41:09.282Z,5.57
2018-01-14T01:43:36.794Z,4.97
2018-01-14T01:46:04.303Z,6.53
2018-01-14T01:48:31.893Z,11.13
2018-01-14T01:51:00.152Z,5.90
2018-01-14T01:53:27.660Z,6.70
2018-01-14T01:55:55.148Z,6.17
2018-01-14T01:58:24.572Z,8.63
2018-01-14T02:00:52.086Z,6.73
2018-01-14T02:03:19.568Z,4.80
2018-01-14T02:05:47.209Z,4.53
2018-01-14T02:08:14.745Z,5.53
2018-01-14T02:10:42.261Z,5.03
2018-01-14T02:13:09.759Z,6.17
2018-01-14T02:15:37.273Z,5.90
2018-01-14T02:18:04.764Z,9.60
2018-01-14T02:20:32.288Z,6.67
2018-01-14T02:22:59.801Z,5.40
2018-01-14T02:25:27.289Z,6.40
2018-01-14T02:27:54.806Z,5.27
2018-01-14T02:30:22.296Z,5.33
2018-01-14T02:32:49.818Z,5.60
2018-01-14T02:35:17.309Z,7.53
2018-01-14T02:37:44.800Z,4.73
2018-01-14T02:40:13.075Z,5.90
2018-01-14T02:42:41.332Z,5.93
2018-01-14T02:45:08.853Z,7.20
2018-01-14T02:47:36.344Z,5.07
2018-01-14T02:50:03.882Z,4.77
2018-01-14T02:52:31.377Z,4.77
2018-01-14T02:54:59.628Z,7.60
2018-01-14T02:57:28.649Z,4.80
2018-01-14T02:59:56.904Z,5.07
2018-01-14T03:02:24.420Z,5.30
2018-01-14T03:04:51.907Z,6.93
2018-01-14T03:07:21.749Z,5.73
2018-01-14T03:09:50.012Z,5.17
2018-01-14T03:12:17.539Z,6.17
2018-01-14T03:14:45.031Z,8.20
2018-01-14T03:17:13.290Z,5.70
2018-01-14T03:19:42.768Z,5.50
2018-01-14T03:22:10.256Z,6.27
2018-01-14T03:24:37.768Z,5.60
2018-01-14T03:27:05.252Z,7.03
2018-01-14T03:29:32.768Z,5.90
2018-01-14T03:32:01.212Z,5.77
2018-01-14T03:34:29.482Z,6.00
2018-01-14T03:36:59.741Z,5.17
2018-01-14T03:39:27.233Z,5.87
2018-01-14T03:41:54.750Z,6.27
2018-01-14T03:44:22.244Z,5.97
2018-01-14T03:46:51.725Z,5.03
2018-01-14T03:49:19.212Z,5.37
2018-01-14T03:51:46.709Z,4.60
2018-01-14T03:54:14.984Z,5.00
2018-01-14T03:56:43.236Z,5.03
2018-01-14T03:59:10.750Z,6.23
2018-01-14T04:01:38.245Z,6.73
2018-01-14T04:04:05.884Z,7.00
2018-01-14T04:06:33.396Z,8.43
2018-01-14T04:09:00.880Z,6.23
2018-01-14T04:11:28.393Z,5.13
2018-01-14T04:13:57.596Z,6.60
2018-01-14T04:16:25.844Z,5.00
2018-01-14T04:18:54.124Z,5.87
2018-01-14T04:21:21.622Z,6.23
2018-01-14T04:23:49.132Z,5.53
2018-01-14T04:26:18.356Z,6.00
2018-01-14T04:28:46.608Z,5.60
2018-01-14T04:31:14.140Z,6.10
2018-01-14T04:33:41.634Z,5.50
2018-01-14T04:36:09.912Z,6.17
2018-01-14T04:38:38.165Z,6.50
2018-01-14T04:41:06.421Z,6.53
2018-01-14T04:43:33.932Z,5.40
2018-01-14T04:46:03.660Z,5.83
2018-01-14T04:48:31.173Z,7.07
2018-01-14T04:50:58.662Z,6.03
2018-01-14T04:53:27.136Z,6.50
2018-01-14T04:55:54.648Z,6.83
2018-01-14T04:58:22.146Z,4.60
2018-01-14T05:00:50.420Z,5.03
2018-01-14T05:03:18.676Z,5.60
2018-01-14T05:05:46.173Z,6.23
2018-01-14T05:08:13.692Z,6.10
2018-01-14T05:10:41.964Z,7.87
2018-01-14T05:13:09.476Z,6.33
2018-01-14T05:15:36.984Z,5.30
2018-01-14T05:18:05.244Z,4.93
2018-01-14T05:20:32.764Z,5.60
2018-01-14T05:23:00.249Z,6.47
2018-01-14T05:25:27.736Z,5.10
2018-01-14T05:27:56.009Z,5.13
2018-01-14T05:30:25.204Z,6.37
2018-01-14T05:32:53.480Z,5.27
2018-01-14T05:35:21.736Z,5.90
2018-01-14T05:37:49.232Z,8.23
2018-01-14T05:40:16.744Z,6.87
2018-01-14T05:42:45.752Z,5.40
2018-01-14T05:45:13.264Z,5.47
2018-01-14T05:47:40.749Z,5.67
2018-01-14T05:50:11.752Z,7.73
2018-01-14T05:52:39.240Z,7.33
2018-01-14T05:55:06.737Z,5.50
2018-01-14T05:57:36.979Z,7.63
2018-01-14T06:00:04.472Z,6.40
2018-01-14T06:02:32.056Z,5.73
2018-01-14T06:05:00.312Z,6.37
2018-01-14T06:07:28.597Z,6.13
2018-01-14T06:09:56.143Z,5.40
2018-01-14T06:12:23.604Z,5.60
2018-01-14T06:14:51.880Z,6.03
2018-01-14T06:17:19.372Z,4.80
2018-01-14T06:19:46.880Z,5.50
2018-01-14T06:22:15.307Z,5.77
2018-01-14T06:24:42.796Z,5.37
2018-01-14T06:27:10.310Z,5.80
2018-01-14T06:29:38.567Z,5.77
2018-01-14T06:32:06.083Z,5.93
2018-01-14T06:34:33.588Z,7.10
2018-01-14T06:37:01.868Z,6.67
2018-01-14T06:39:30.120Z,7.60
2018-01-14T06:41:57.630Z,5.90
2018-01-14T06:44:25.120Z,5.70
2018-01-14T06:46:52.629Z,7.57
2018-01-14T06:49:20.118Z,5.30
2018-01-14T06:51:47.654Z,5.03
2018-01-14T06:54:15.140Z,4.90
2018-01-14T06:56:42.628Z,6.23
2018-01-14T06:59:10.137Z,5.93
2018-01-14T07:01:37.624Z,6.40
2018-01-14T07:04:05.139Z,6.50
2018-01-14T07:06:32.632Z,6.30
2018-01-14T07:09:00.149Z,8.00
2018-01-14T07:11:27.642Z,6.50
2018-01-14T07:13:55.136Z,6.30
2018-01-14T07:16:24.385Z,7.40
2018-01-14T07:18:51.868Z,5.07
2018-01-14T07:21:19.380Z,6.07
2018-01-14T07:23:46.872Z,6.93
2018-01-14T07:26:14.405Z,6.60
2018-01-14T07:28:41.900Z,5.53
2018-01-14T07:31:09.412Z,5.20
2018-01-14T07:33:36.909Z,9.00
2018-01-14T07:36:06.382Z,5.20
2018-01-14T07:38:33.876Z,8.07
2018-01-14T07:41:01.365Z,5.10
2018-01-14T07:43:30.881Z,7.00
2018-01-14T07:45:59.306Z,5.30
2018-01-14T07:48:26.826Z,5.47
2018-01-14T07:50:54.321Z,5.57
2018-01-14T07:53:23.386Z,6.13
2018-01-14T07:55:51.813Z,5.07
2018-01-14T07:58:20.094Z,6.23
2018-01-14T08:00:48.360Z,5.43
2018-01-14T08:03:16.612Z,5.47
2018-01-14T08:05:44.116Z,6.03
2018-01-14T08:08:11.604Z,5.90
2018-01-14T08:10:39.169Z,6.10
2018-01-14T08:13:06.640Z,6.60
2018-01-14T08:15:34.920Z,5.50
2018-01-14T08:18:02.424Z,5.70
2018-01-14T08:20:29.916Z,6.57
2018-01-14T08:22:57.429Z,6.07
2018-01-14T08:25:24.986Z,5.53
2018-01-14T08:27:53.224Z,5.43
2018-01-14T08:30:22.220Z,5.90
2018-01-14T08:32:51.245Z,4.80
2018-01-14T08:35:19.527Z,5.57
2018-01-14T08:37:47.036Z,5.70
2018-01-14T08:40:14.524Z,5.10
2018-01-14T08:42:42.796Z,7.23
2018-01-14T08:45:11.990Z,5.97
2018-01-14T08:47:40.248Z,5.57
2018-01-14T08:50:09.264Z,6.53
2018-01-14T08:52:37.533Z,6.00
2018-01-14T08:55:05.812Z,5.13
2018-01-14T08:57:34.087Z,5.77
2018-01-14T09:00:02.366Z,5.23
2018-01-14T09:02:30.628Z,5.63
2018-01-14T09:04:58.908Z,5.27
2018-01-14T09:07:27.162Z,5.33
2018-01-14T09:09:54.676Z,5.63
2018-01-14T09:12:22.169Z,4.80
2018-01-14T09:14:49.684Z,7.17
2018-01-14T09:17:17.201Z,6.53
2018-01-14T09:19:44.696Z,5.00
2018-01-14T09:22:12.209Z,4.43
2018-01-14T09:24:39.709Z,5.43
2018-01-14T09:27:09.228Z,5.07
2018-01-14T09:29:36.712Z,6.30
2018-01-14T09:32:04.232Z,5.23
2018-01-14T09:34:31.760Z,5.50
2018-01-14T09:37:00.063Z,4.73
2018-01-14T09:39:27.577Z,5.67
2018-01-14T09:41:55.104Z,5.87
2018-01-14T09:44:22.596Z,4.77
2018-01-14T09:46:50.109Z,6.03
2018-01-14T09:49:17.601Z,4.47
2018-01-14T09:51:45.085Z,6.10
2018-01-14T09:54:15.322Z,4.97
2018-01-14T09:56:42.813Z,4.87
2018-01-14T09:59:10.325Z,5.50
2018-01-14T10:01:37.857Z,7.93
2018-01-14T10:04:08.128Z,7.00
2018-01-14T10:06:37.288Z,4.27
2018-01-14T10:09:05.539Z,7.20
2018-01-14T10:11:33.052Z,5.60
2018-01-14T10:14:01.496Z,8.07
2018-01-14T10:16:29.773Z,6.87
2018-01-14T10:19:00.025Z,7.57
2018-01-14T10:21:27.532Z,6.30
2018-01-14T10:23:55.021Z,7.00
2018-01-14T10:26:22.540Z,6.43
2018-01-14T10:28:50.027Z,4.77
2018-01-14T10:31:18.308Z,5.37
2018-01-14T10:33:45.805Z,6.17
2018-01-14T10:36:13.312Z,5.47
2018-01-14T10:38:41.600Z,4.47
2018-01-14T10:41:09.104Z,7.70
2018-01-14T10:43:36.592Z,5.40
2018-01-14T10:46:04.872Z,5.37
2018-01-14T10:48:33.132Z,6.60
2018-01-14T10:51:00.644Z,4.90
2018-01-14T10:53:28.156Z,5.07
2018-01-14T10:55:56.416Z,6.87
2018-01-14T10:58:23.934Z,6.00
2018-01-14T11:00:58.265Z,5.90
2018-01-14T11:03:25.785Z,5.43
2018-01-14T11:05:53.292Z,4.70
2018-01-14T11:08:20.781Z,5.13
2018-01-14T11:10:49.081Z,5.67
2018-01-14T11:13:16.578Z,5.60
2018-01-14T11:15:44.067Z,5.17
2018-01-14T11:18:12.348Z,5.40
2018-01-14T11:20:40.641Z,6.03
2018-01-14T11:23:10.125Z,4.60
2018-01-14T11:25:38.381Z,4.53
2018-01-14T11:28:05.898Z,5.10
2018-01-14T11:30:33.417Z,4.30
2018-01-14T11:33:01.680Z,5.80
2018-01-14T11:35:29.969Z,5.00
2018-01-14T11:37:58.253Z,5.10
2018-01-14T11:40:25.776Z,4.60
2018-01-14T11:42:53.275Z,5.50
2018-01-14T11:45:20.780Z,5.60
2018-01-14T11:47:49.830Z,4.73
2018-01-14T11:50:17.372Z,5.50
2018-01-14T11:52:44.865Z,4.70
2018-01-14T11:55:12.360Z,5.27
2018-01-14T11:57:41.829Z,6.70
2018-01-14T12:00:09.321Z,4.97
2018-01-14T12:02:37.601Z,6.27
2018-01-14T12:05:05.882Z,4.23
2018-01-14T12:07:34.141Z,6.77
2018-01-14T12:10:01.652Z,7.00
2018-01-14T12:12:29.142Z,6.13
2018-01-14T12:14:57.412Z,4.73
2018-01-14T12:17:24.932Z,5.80
2018-01-14T12:19:52.440Z,5.20
2018-01-14T12:22:20.952Z,4.97
2018-01-14T12:24:48.444Z,5.10
2018-01-14T12:27:15.956Z,4.43
2018-01-14T12:29:45.175Z,4.07
2018-01-14T12:32:12.696Z,4.30
2018-01-14T12:34:40.216Z,4.57
2018-01-14T12:37:07.727Z,5.17
2018-01-14T12:39:36.024Z,5.80
2018-01-14T12:42:03.557Z,4.33
2018-01-14T12:44:31.841Z,4.63
2018-01-14T12:47:01.024Z,5.23
2018-01-14T12:49:29.304Z,3.87
2018-01-14T12:51:57.588Z,4.57
2018-01-14T12:54:25.086Z,4.23
2018-01-14T12:56:52.825Z,4.57
2018-01-14T12:59:20.538Z,4.03
2018-01-14T13:01:48.183Z,4.73
2018-01-14T13:04:15.909Z,4.20
2018-01-14T13:06:43.776Z,4.50
2018-01-14T13:09:11.318Z,5.00
2018-01-14T13:11:38.828Z,3.83
2018-01-14T13:14:06.365Z,5.17
2018-01-14T13:16:34.417Z,5.57
2018-01-14T13:19:01.912Z,4.60
2018-01-14T13:21:30.188Z,7.10
2018-01-14T13:23:57.912Z,4.93
2018-01-14T13:26:25.433Z,5.23
2018-01-14T13:28:53.948Z,3.73
2018-01-14T13:31:22.226Z,4.50
2018-01-14T13:33:50.088Z,3.60
2018-01-14T13:36:17.957Z,4.33
2018-01-14T13:38:45.586Z,4.00
2018-01-14T13:41:14.605Z,3.67
2018-01-14T13:43:43.496Z,6.30
2018-01-14T13:46:11.098Z,4.00
2018-01-14T13:48:38.736Z,4.20
2018-01-14T13:51:06.294Z,8.00
2018-01-14T13:53:35.161Z,6.30
2018-01-14T13:56:03.028Z,6.97
2018-01-14T13:58:30.892Z,6.30
2018-01-14T14:00:58.801Z,6.17
2018-01-14T14:03:26.623Z,4.87
2018-01-14T14:05:55.615Z,5.03
2018-01-14T14:08:24.403Z,4.43
2018-01-14T14:10:52.271Z,5.00
2018-01-14T14:13:20.083Z,4.97
2018-01-14T14:15:47.896Z,6.30
2018-01-14T14:18:16.525Z,4.40
2018-01-14T14:20:45.156Z,5.17
2018-01-14T14:23:13.137Z,5.10
2018-01-14T14:25:40.995Z,5.23
2018-01-14T14:28:09.066Z,7.00
2018-01-14T14:30:37.852Z,5.57
2018-01-14T14:33:05.489Z,5.30
2018-01-14T14:35:33.066Z,5.63
2018-01-14T14:38:00.692Z,5.33
2018-01-14T14:40:30.031Z,4.57
2018-01-14T14:42:58.843Z,5.60
2018-01-14T14:45:26.706Z,229.03
2018-01-14T14:47:54.551Z,282.73
2018-01-14T14:50:22.209Z,371.87
2018-01-14T14:52:50.006Z,199.43
2018-01-14T14:55:18.578Z,303.53
2018-01-14T14:57:46.374Z,228.57
2018-01-14T15:00:13.944Z,171.03
2018-01-14T15:02:42.298Z,179.27
2018-01-14T15:05:09.924Z,184.37
2018-01-14T15:07:37.695Z,149.37
2018-01-14T15:10:05.585Z,166.07
2018-01-14T15:12:33.961Z,149.33
2018-01-14T15:15:01.623Z,125.73
2018-01-14T15:17:29.967Z,137.20
2018-01-14T15:19:57.564Z,116.13
2018-01-14T15:22:25.157Z,97.23
2018-01-14T15:24:52.730Z,102.20
2018-01-14T15:27:20.329Z,116.93
2018-01-14T15:29:49.394Z,104.33
2018-01-14T15:32:17.010Z,87.97
2018-01-14T15:34:45.344Z,88.37
2018-01-14T15:37:12.933Z,97.33
2018-01-14T15:39:41.668Z,82.43
2018-01-14T15:42:09.432Z,76.03
2018-01-14T15:44:38.249Z,83.97
2018-01-14T15:47:07.116Z,68.77
2018-01-14T15:49:36.210Z,68.17
2018-01-14T15:52:03.870Z,70.93
2018-01-14T15:54:31.569Z,58.63
2018-01-14T15:56:59.213Z,65.00
2018-01-14T15:59:27.609Z,66.53
2018-01-14T16:01:55.174Z,66.77
2018-01-14T16:04:25.500Z,61.90
2018-01-14T16:06:53.854Z,50.57
2018-01-14T16:09:21.400Z,42.50
2018-01-14T16:11:48.967Z,50.13
2018-01-14T16:14:16.517Z,56.00
2018-01-14T16:16:44.236Z,43.10
2018-01-14T16:19:12.122Z,40.70
2018-01-14T16:21:39.748Z,49.07
2018-01-14T16:24:08.261Z,42.27
2018-01-14T16:26:35.797Z,35.37
2018-01-14T16:29:04.078Z,35.90
2018-01-14T16:31:31.584Z,35.43
2018-01-14T16:33:59.135Z,42.20
2018-01-14T16:36:26.640Z,34.10
2018-01-14T16:38:54.932Z,40.33
2018-01-14T16:41:22.452Z,42.77
2018-01-14T16:43:51.664Z,34.67
2018-01-14T16:46:19.934Z,34.67
2018-01-14T16:48:48.233Z,32.33
2018-01-14T16:51:15.733Z,26.20
2018-01-14T16:53:43.253Z,26.00
2018-01-14T16:56:10.758Z,27.40
2018-01-14T16:58:39.051Z,31.87
2018-01-14T17:01:08.283Z,25.37
2018-01-14T17:03:35.777Z,31.63
2018-01-14T17:06:03.312Z,19.80
2018-01-14T17:08:30.832Z,22.57
2018-01-14T17:10:58.377Z,23.90
2018-01-14T17:13:25.885Z,29.67
2018-01-14T17:15:53.403Z,25.13
2018-01-14T17:18:21.684Z,21.27
2018-01-14T17:20:49.948Z,28.30
2018-01-14T17:23:18.233Z,19.43
2018-01-14T17:25:46.505Z,14.93
2018-01-14T17:28:14.785Z,15.67
2018-01-14T17:30:43.041Z,34.67
2018-01-14T17:33:10.540Z,15.23
2018-01-14T17:35:38.061Z,21.37
2018-01-14T17:38:06.316Z,16.70
2018-01-14T17:40:35.357Z,16.80
2018-01-14T17:43:02.859Z,13.03
2018-01-14T17:45:30.358Z,18.03
2018-01-14T17:47:58.646Z,16.80
2018-01-14T17:50:26.176Z,17.83
2018-01-14T17:52:53.677Z,13.27
2018-01-14T17:55:21.196Z,17.27
2018-01-14T17:57:49.461Z,18.13
2018-01-14T18:00:17.748Z,12.33
2018-01-14T18:02:45.260Z,16.43
2018-01-14T18:05:14.733Z,12.50
2018-01-14T18:07:43.197Z,15.00
2018-01-14T18:10:10.741Z,11.70
2018-01-14T18:12:39.009Z,9.60
2018-01-14T18:15:07.270Z,10.93
2018-01-14T18:17:35.561Z,11.50
2018-01-14T18:20:03.833Z,12.40
2018-01-14T18:22:33.101Z,11.83
2018-01-14T18:25:00.594Z,14.13
2018-01-14T18:27:28.865Z,13.00
2018-01-14T18:29:57.152Z,9.73
2018-01-14T18:32:25.471Z,10.47
2018-01-14T18:34:53.000Z,10.80
2018-01-14T18:37:21.452Z,10.90
2018-01-14T18:39:49.713Z,11.73
2018-01-14T18:42:17.237Z,9.40
2018-01-14T18:44:45.680Z,11.67
2018-01-14T18:47:13.201Z,9.83
2018-01-14T18:49:40.696Z,9.67
2018-01-14T18:52:08.229Z,15.07
2018-01-14T18:54:36.089Z,12.10
2018-01-14T18:57:03.590Z,9.83
2018-01-14T18:59:33.103Z,11.30
2018-01-14T19:02:00.592Z,7.83
2018-01-14T19:04:28.108Z,6.63
2018-01-14T19:06:55.609Z,8.07
2018-01-14T19:09:23.109Z,10.40
2018-01-14T19:11:50.620Z,8.80
2018-01-14T19:14:18.901Z,10.77
2018-01-14T19:16:47.928Z,6.73
2018-01-14T19:19:15.420Z,7.67
2018-01-14T19:21:42.920Z,8.43
2018-01-14T19:24:10.460Z,10.20
2018-01-14T19:26:38.726Z,9.77
2018-01-14T19:29:06.236Z,6.90
2018-01-14T19:31:33.729Z,8.63
2018-01-14T19:34:01.213Z,7.23
2018-01-14T19:36:29.506Z,9.80
2018-01-14T19:38:57.769Z,8.57
2018-01-14T19:41:25.285Z,9.13
2018-01-14T19:43:52.793Z,10.07
2018-01-14T19:46:21.057Z,7.97
2018-01-14T19:48:48.572Z,5.97
2018-01-14T19:51:16.060Z,8.73
2018-01-14T19:53:44.336Z,7.60
2018-01-14T19:56:11.852Z,10.50
2018-01-14T19:58:39.353Z,6.60
2018-01-14T20:01:07.652Z,7.90
2018-01-14T20:03:35.196Z,5.87
2018-01-14T20:06:03.513Z,7.33
2018-01-14T20:08:31.004Z,6.90
2018-01-14T20:10:58.504Z,9.97
2018-01-14T20:13:26.794Z,9.63
2018-01-14T20:15:54.281Z,9.40
2018-01-14T20:18:21.854Z,13.07
2018-01-14T20:20:49.317Z,9.87
2018-01-14T20:23:16.823Z,11.13
2018-01-14T20:25:44.341Z,8.13
2018-01-14T20:28:13.800Z,9.60
2018-01-14T20:30:41.296Z,12.70
2018-01-14T20:33:08.820Z,9.90
2018-01-14T20:35:38.356Z,9.50
2018-01-14T20:38:06.624Z,15.60
2018-01-14T20:40:34.140Z,14.90
2018-01-14T20:43:02.591Z,7.80
2018-01-14T20:45:30.871Z,8.27
2018-01-14T20:47:59.134Z,6.23
2018-01-14T20:50:26.727Z,9.57
2018-01-14T20:52:54.318Z,8.63
2018-01-14T20:55:22.637Z,6.20
2018-01-14T20:57:50.943Z,8.27
2018-01-14T21:00:18.528Z,12.60
2018-01-14T21:02:49.544Z,9.20
2018-01-14T21:05:17.806Z,7.33
2018-01-14T21:07:45.300Z,9.13
2018-01-14T21:10:14.785Z,7.13
2018-01-14T21:12:42.277Z,7.30
2018-01-14T21:15:10.577Z,10.47
2018-01-14T21:17:38.841Z,7.53
2018-01-14T21:20:07.108Z,7.50
2018-01-14T21:22:36.552Z,8.53
2018-01-14T21:25:04.055Z,10.50
2018-01-14T21:27:33.048Z,8.87
2018-01-14T21:30:00.564Z,9.30
2018-01-14T21:32:28.056Z,7.73
2018-01-14T21:34:55.570Z,8.40
2018-01-14T21:37:23.105Z,7.67
2018-01-14T21:39:51.401Z,9.37
2018-01-14T21:42:18.937Z,7.30
2018-01-14T21:44:47.212Z,8.80
2018-01-14T21:47:16.085Z,11.33
2018-01-14T21:49:43.604Z,8.10
2018-01-14T21:52:11.116Z,9.00
2018-01-14T21:54:39.673Z,7.33
2018-01-14T21:57:07.469Z,7.03
2018-01-14T21:59:35.354Z,7.80
2018-01-14T22:02:03.108Z,7.20
2018-01-14T22:04:30.881Z,8.90
2018-01-14T22:06:58.507Z,9.00
2018-01-14T22:09:26.093Z,8.50
2018-01-14T22:11:53.596Z,6.77
2018-01-14T22:14:21.112Z,6.63
2018-01-14T22:16:48.620Z,7.17
2018-01-14T22:19:17.636Z,6.87
2018-01-14T22:21:45.917Z,7.60
2018-01-14T22:24:14.213Z,7.93
2018-01-14T22:26:41.725Z,7.43
2018-01-14T22:29:09.212Z,7.17
2018-01-14T22:31:36.724Z,6.70
2018-01-14T22:34:05.721Z,7.80
2018-01-14T22:36:33.983Z,6.17
2018-01-14T22:39:01.492Z,7.57
2018-01-14T22:41:28.992Z,7.60
2018-01-14T22:43:56.505Z,9.23
2018-01-14T22:46:23.996Z,6.83
2018-01-14T22:48:51.494Z,9.83
2018-01-14T22:51:20.556Z,10.70
2018-01-14T22:53:48.061Z,9.03
2018-01-14T22:56:15.588Z,14.00
2018-01-14T22:58:46.580Z,8.27
2018-01-14T23:01:14.121Z,6.70
2018-01-14T23:03:41.617Z,8.67
2018-01-14T23:06:11.109Z,7.03
2018-01-14T23:08:38.624Z,7.00
2018-01-14T23:11:06.888Z,8.20
2018-01-14T23:13:34.428Z,5.80
2018-01-14T23:16:01.924Z,8.40
2018-01-14T23:18:30.212Z,7.20
2018-01-14T23:20:57.701Z,13.43
2018-01-14T23:23:25.644Z,7.90
2018-01-14T23:25:55.234Z,7.67
2018-01-14T23:28:23.012Z,8.33
2018-01-14T23:30:50.587Z,8.67
2018-01-14T23:33:19.357Z,7.47
2018-01-14T23:35:47.223Z,8.40
2018-01-14T23:38:14.986Z,6.57
2018-01-14T23:40:42.807Z,7.50
2018-01-14T23:43:10.717Z,6.93
2018-01-14T23:45:38.582Z,7.97
2018-01-14T23:48:06.396Z,7.30
2018-01-14T23:50:34.005Z,5.20
2018-01-14T23:53:01.750Z,6.30
2018-01-14T23:55:29.572Z,6.33
2018-01-14T23:57:57.294Z,8.77
